createdAt,value
2019-04-05T00:02:23.115Z,8.09
2019-04-05T00:04:51.599Z,8.08
2019-04-05T00:07:20.131Z,8.08
2019-04-05T00:09:48.692Z,8.02
2019-04-05T00:12:17.235Z,8.03
2019-04-05T00:14:45.706Z,8.04
2019-04-05T00:17:14.195Z,8.02
2019-04-05T00:19:42.708Z,8.01
2019-04-05T00:22:11.144Z,7.96
2019-04-05T00:24:39.636Z,7.96
2019-04-05T00:27:08.118Z,7.97
2019-04-05T00:29:36.609Z,7.93
2019-04-05T00:32:05.120Z,7.97
2019-04-05T00:34:33.597Z,7.93
2019-04-05T00:37:02.067Z,7.90
2019-04-05T00:39:30.515Z,7.90
2019-04-05T00:41:59.039Z,7.92
2019-04-05T00:44:27.540Z,7.90
2019-04-05T00:46:56.006Z,7.86
2019-04-05T00:49:24.757Z,7.85
2019-04-05T00:51:53.297Z,7.82
2019-04-05T00:54:21.920Z,7.87
2019-04-05T00:56:50.475Z,7.86
2019-04-05T00:59:18.981Z,7.85
2019-04-05T01:01:47.602Z,7.81
2019-04-05T01:04:16.431Z,7.81
2019-04-05T01:06:45.047Z,7.77
2019-04-05T01:09:13.532Z,7.77
2019-04-05T01:11:42.061Z,7.82
2019-04-05T01:14:10.646Z,7.86
2019-04-05T01:16:39.257Z,7.76
2019-04-05T01:19:10.206Z,7.85
2019-04-05T01:21:40.532Z,7.84
2019-04-05T01:24:11.247Z,7.83
2019-04-05T01:26:41.467Z,7.75
2019-04-05T01:29:10.110Z,7.76
2019-04-05T01:31:38.571Z,7.80
2019-04-05T01:34:07.051Z,7.78
2019-04-05T01:36:35.626Z,7.74
2019-04-05T01:39:05.805Z,7.73
2019-04-05T01:41:35.001Z,7.73
2019-04-05T01:44:03.494Z,7.68
2019-04-05T01:46:32.733Z,7.74
2019-04-05T01:49:01.210Z,7.75
2019-04-05T01:51:29.715Z,7.77
2019-04-05T01:53:58.300Z,7.75
2019-04-05T01:56:26.859Z,7.77
2019-04-05T01:58:55.342Z,7.74
2019-04-05T02:01:23.913Z,7.72
2019-04-05T02:03:52.499Z,7.77
2019-04-05T02:06:21.088Z,7.77
2019-04-05T02:08:49.925Z,7.69
2019-04-05T02:11:18.489Z,7.68
2019-04-05T02:13:47.088Z,7.64
2019-04-05T02:16:15.654Z,7.64
2019-04-05T02:18:44.199Z,7.64
2019-04-05T02:21:12.663Z,7.65
2019-04-05T02:23:41.232Z,7.69
2019-04-05T02:26:09.759Z,7.71
2019-04-05T02:28:38.265Z,7.70
2019-04-05T02:31:06.889Z,7.69
2019-04-05T02:33:35.374Z,7.73
2019-04-05T02:36:04.020Z,7.71
2019-04-05T02:38:32.461Z,7.71
2019-04-05T02:41:03.182Z,7.67
2019-04-05T02:43:34.742Z,7.66
2019-04-05T02:46:05.163Z,7.74
2019-04-05T02:48:36.665Z,7.72
2019-04-05T02:51:07.153Z,7.66
2019-04-05T02:53:37.106Z,7.61
2019-04-05T02:56:07.304Z,7.67
2019-04-05T02:58:38.412Z,7.59
2019-04-05T03:01:07.306Z,7.53
2019-04-05T03:03:36.536Z,7.56
2019-04-05T03:06:07.234Z,7.52
2019-04-05T03:08:36.811Z,7.48
2019-04-05T03:11:13.372Z,7.53
2019-04-05T03:13:47.612Z,7.50
2019-04-05T03:16:19.141Z,7.46
2019-04-05T03:18:50.631Z,7.50
2019-04-05T03:21:22.127Z,7.48
2019-04-05T03:23:52.944Z,7.52
2019-04-05T03:26:24.448Z,7.54
2019-04-05T03:28:56.305Z,7.49
2019-04-05T03:31:25.944Z,7.47
2019-04-05T03:33:55.443Z,7.51
2019-04-05T03:36:24.334Z,7.48
2019-04-05T03:38:54.032Z,7.46
2019-04-05T03:41:24.060Z,7.55
2019-04-05T03:43:52.655Z,7.51
2019-04-05T03:46:21.484Z,7.51
2019-04-05T03:48:50.579Z,7.55
2019-04-05T03:51:19.171Z,7.54
2019-04-05T03:53:47.950Z,7.53
2019-04-05T03:56:16.949Z,7.50
2019-04-05T03:58:46.286Z,7.52
2019-04-05T04:01:14.931Z,7.53
2019-04-05T04:03:43.509Z,7.55
2019-04-05T04:06:12.175Z,7.55
2019-04-05T04:08:41.066Z,7.57
2019-04-05T04:11:09.750Z,7.57
2019-04-05T04:13:38.974Z,7.56
2019-04-05T04:16:07.880Z,7.62
2019-04-05T04:18:36.835Z,7.61
2019-04-05T04:21:14.475Z,7.54
2019-04-05T04:23:43.445Z,7.57
2019-04-05T04:26:11.989Z,7.57
2019-04-05T04:28:40.579Z,7.59
2019-04-05T04:31:09.151Z,7.54
2019-04-05T04:33:37.775Z,7.54
2019-04-05T04:36:06.289Z,7.56
2019-04-05T04:38:34.795Z,7.59
2019-04-05T04:41:03.337Z,7.62
2019-04-05T04:43:31.949Z,7.63
2019-04-05T04:46:01.081Z,7.58
2019-04-05T04:48:30.496Z,7.64
2019-04-05T04:50:59.382Z,7.51
2019-04-05T04:53:28.355Z,7.51
2019-04-05T04:55:57.735Z,7.50
2019-04-05T04:58:26.322Z,7.47
2019-04-05T05:00:54.964Z,7.49
2019-04-05T05:03:23.789Z,7.52
2019-04-05T05:05:52.605Z,7.55
2019-04-05T05:08:21.803Z,7.56
2019-04-05T05:10:51.260Z,7.54
2019-04-05T05:13:20.096Z,7.51
2019-04-05T05:15:48.620Z,7.52
2019-04-05T05:18:17.411Z,7.50
2019-04-05T05:20:46.164Z,7.49
2019-04-05T05:23:14.683Z,7.48
2019-04-05T05:25:46.718Z,7.47
2019-04-05T05:28:14.226Z,7.52
2019-04-05T05:30:42.810Z,7.48
2019-04-05T05:33:11.364Z,7.50
2019-04-05T05:35:40.032Z,7.54
2019-04-05T05:38:08.629Z,7.54
2019-04-05T05:40:38.752Z,7.52
2019-04-05T05:43:07.191Z,7.54
2019-04-05T05:45:35.734Z,7.53
2019-04-05T05:48:04.242Z,7.48
2019-04-05T05:50:33.138Z,7.49
2019-04-05T05:53:02.218Z,7.48
2019-04-05T05:55:30.721Z,7.55
2019-04-05T05:57:59.155Z,7.55
2019-04-05T06:00:31.065Z,7.59
2019-04-05T06:02:58.963Z,7.56
2019-04-05T06:05:27.420Z,7.50
2019-04-05T06:07:55.860Z,7.51
2019-04-05T06:10:24.318Z,7.50
2019-04-05T06:12:52.761Z,7.50
2019-04-05T06:15:21.279Z,7.51
2019-04-05T06:17:49.739Z,7.56
2019-04-05T06:20:19.523Z,7.57
2019-04-05T06:22:47.975Z,7.54
2019-04-05T06:25:16.432Z,7.49
2019-04-05T06:27:44.945Z,7.50
2019-04-05T06:30:13.516Z,7.52
2019-04-05T06:32:42.079Z,7.57
2019-04-05T06:35:11.151Z,7.60
2019-04-05T06:37:39.654Z,7.55
2019-04-05T06:40:08.546Z,7.58
2019-04-05T06:42:37.058Z,7.63
2019-04-05T06:45:07.275Z,7.64
2019-04-05T06:47:35.748Z,7.71
2019-04-05T06:50:06.857Z,7.68
2019-04-05T06:52:35.335Z,7.62
2019-04-05T06:55:04.887Z,7.66
2019-04-05T06:57:33.348Z,7.71
2019-04-05T07:00:01.916Z,7.72
2019-04-05T07:02:30.458Z,7.69
2019-04-05T07:04:58.910Z,7.69
2019-04-05T07:07:27.757Z,7.66
2019-04-05T07:09:56.277Z,7.75
2019-04-05T07:12:24.764Z,7.75
2019-04-05T07:14:56.105Z,7.67
2019-04-05T07:17:23.490Z,7.70
2019-04-05T07:19:51.983Z,7.68
2019-04-05T07:22:35.508Z,7.71
2019-04-05T07:24:50.606Z,7.67
2019-04-05T07:27:19.060Z,7.69
2019-04-05T07:29:47.486Z,7.75
2019-04-05T07:32:15.960Z,7.77
2019-04-05T07:34:44.485Z,7.82
2019-04-05T07:37:13.137Z,7.87
2019-04-05T07:39:41.604Z,7.86
2019-04-05T07:42:10.051Z,7.90
2019-04-05T07:44:39.152Z,7.85
2019-04-05T07:47:07.605Z,7.91
2019-04-05T07:49:36.048Z,7.94
2019-04-05T07:52:04.669Z,7.96
2019-04-05T07:54:33.111Z,7.85
2019-04-05T07:57:01.554Z,7.94
2019-04-05T07:59:30.042Z,7.86
2019-04-05T08:01:58.473Z,7.86
2019-04-05T08:04:26.919Z,7.87
2019-04-05T08:06:58.423Z,7.89
2019-04-05T08:09:27.928Z,7.86
2019-04-05T08:11:56.642Z,7.92
2019-04-05T08:14:26.817Z,8.03
2019-04-05T08:16:55.293Z,7.96
2019-04-05T08:19:23.754Z,7.99
2019-04-05T08:21:52.189Z,8.05
2019-04-05T08:24:20.655Z,8.13
2019-04-05T08:26:49.076Z,8.13
2019-04-05T08:29:17.595Z,8.15
2019-04-05T08:31:46.097Z,8.08
2019-04-05T08:34:14.560Z,8.05
2019-04-05T08:36:43.028Z,8.13
2019-04-05T08:39:11.541Z,8.11
2019-04-05T08:41:40.105Z,8.11
2019-04-05T08:44:08.763Z,8.09
2019-04-05T08:46:37.228Z,8.01
2019-04-05T08:49:10.901Z,8.06
2019-04-05T08:51:36.525Z,8.02
2019-04-05T08:54:05.561Z,8.06
2019-04-05T08:56:34.101Z,8.12
2019-04-05T08:59:02.531Z,8.17
2019-04-05T09:01:31.004Z,8.26
2019-04-05T09:03:59.520Z,8.28
2019-04-05T09:06:28.068Z,8.35
2019-04-05T09:08:56.549Z,8.32
2019-04-05T09:11:24.988Z,8.37
2019-04-05T09:13:53.511Z,8.33
2019-04-05T09:16:21.999Z,8.23
2019-04-05T09:18:50.452Z,8.26
2019-04-05T09:21:18.891Z,8.27
2019-04-05T09:23:47.366Z,8.23
2019-04-05T09:26:15.851Z,8.32
2019-04-05T09:28:45.255Z,8.31
2019-04-05T09:31:13.796Z,8.34
2019-04-05T09:33:42.257Z,8.21
2019-04-05T09:36:10.738Z,8.16
2019-04-05T09:38:39.655Z,8.21
2019-04-05T09:41:08.081Z,8.12
2019-04-05T09:43:36.551Z,8.20
2019-04-05T09:46:05.180Z,8.12
2019-04-05T09:48:33.666Z,8.21
2019-04-05T09:51:02.172Z,8.26
2019-04-05T09:53:30.641Z,8.29
2019-04-05T09:55:59.102Z,8.35
2019-04-05T09:58:27.548Z,8.29
2019-04-05T10:00:56.234Z,8.20
2019-04-05T10:03:24.794Z,8.28
2019-04-05T10:05:53.255Z,8.27
2019-04-05T10:08:21.693Z,8.28
2019-04-05T10:10:51.345Z,8.34
2019-04-05T10:13:19.776Z,8.32
2019-04-05T10:15:48.239Z,8.45
2019-04-05T10:18:16.708Z,8.45
2019-04-05T10:20:45.142Z,8.49
2019-04-05T10:23:13.585Z,8.41
2019-04-05T10:25:43.919Z,8.44
2019-04-05T10:28:12.254Z,8.49
2019-04-05T10:30:40.645Z,8.41
2019-04-05T10:33:09.097Z,8.37
2019-04-05T10:35:37.562Z,8.43
2019-04-05T10:38:06.083Z,8.43
2019-04-05T10:40:34.503Z,8.52
2019-04-05T10:43:02.972Z,8.51
2019-04-05T10:45:31.569Z,8.34
2019-04-05T10:47:59.997Z,8.36
2019-04-05T10:50:28.449Z,8.47
2019-04-05T10:52:56.901Z,8.46
2019-04-05T10:55:25.413Z,8.52
2019-04-05T10:57:53.968Z,8.38
2019-04-05T11:00:23.546Z,8.46
2019-04-05T11:02:52.014Z,8.48
2019-04-05T11:05:20.543Z,8.62
2019-04-05T11:07:48.998Z,8.58
2019-04-05T11:10:17.582Z,8.59
2019-04-05T11:12:46.063Z,8.60
2019-04-05T11:15:15.362Z,8.67
2019-04-05T11:17:44.512Z,8.82
2019-04-05T11:20:21.060Z,8.67
2019-04-05T11:22:46.690Z,8.73
2019-04-05T11:25:15.324Z,8.67
2019-04-05T11:27:44.277Z,8.78
2019-04-05T11:30:14.494Z,8.82
2019-04-05T11:32:42.995Z,8.91
2019-04-05T11:35:14.951Z,8.93
2019-04-05T11:37:42.522Z,8.93
2019-04-05T11:40:12.130Z,8.97
2019-04-05T11:42:42.944Z,8.94
2019-04-05T11:45:11.575Z,8.92
2019-04-05T11:47:42.123Z,8.89
2019-04-05T11:50:34.682Z,8.97
2019-04-05T11:53:02.388Z,8.98
2019-04-05T11:55:31.128Z,8.92
2019-04-05T11:57:59.789Z,9.00
2019-04-05T12:00:46.448Z,9.00
2019-04-05T12:03:16.776Z,9.01
2019-04-05T12:05:53.398Z,9.06
2019-04-05T12:08:24.339Z,9.01
2019-04-05T12:10:53.407Z,9.04
2019-04-05T12:13:21.929Z,9.06
2019-04-05T12:15:51.054Z,9.01
2019-04-05T12:18:19.889Z,9.07
2019-04-05T12:20:59.011Z,9.14
2019-04-05T12:23:18.951Z,9.07
2019-04-05T12:25:47.389Z,8.98
2019-04-05T12:28:16.192Z,8.94
2019-04-05T12:30:46.803Z,9.03
2019-04-05T12:33:19.267Z,9.05
2019-04-05T12:35:46.200Z,9.08
2019-04-05T12:38:28.123Z,9.10
2019-04-05T12:40:47.266Z,9.14
2019-04-05T12:43:16.068Z,9.24
2019-04-05T12:45:45.305Z,9.22
2019-04-05T12:48:15.919Z,9.22
2019-04-05T12:50:45.934Z,9.20
2019-04-05T12:53:14.363Z,9.14
2019-04-05T12:55:42.960Z,9.23
2019-04-05T12:58:13.167Z,9.24
2019-04-05T13:00:41.804Z,9.30
2019-04-05T13:03:10.337Z,9.34
2019-04-05T13:05:38.797Z,9.26
2019-04-05T13:08:07.871Z,9.18
2019-04-05T13:10:37.855Z,9.14
2019-04-05T13:13:06.477Z,9.29
2019-04-05T13:15:35.016Z,9.29
2019-04-05T13:18:03.491Z,9.26
2019-04-05T13:20:32.196Z,9.32
2019-04-05T13:23:04.431Z,9.32
2019-04-05T13:25:31.829Z,9.40
2019-04-05T13:28:12.529Z,9.43
2019-04-05T13:30:30.881Z,9.46
2019-04-05T13:32:59.696Z,9.48
2019-04-05T13:35:28.766Z,9.50
2019-04-05T13:38:00.363Z,9.47
2019-04-05T13:40:29.501Z,9.46
2019-04-05T13:43:01.406Z,9.52
2019-04-05T13:45:29.595Z,9.51
2019-04-05T13:47:58.039Z,9.51
2019-04-05T13:50:26.587Z,9.50
2019-04-05T13:52:55.366Z,9.49
2019-04-05T13:55:24.237Z,9.48
2019-04-05T13:57:52.818Z,9.55
2019-04-05T14:00:22.470Z,9.42
2019-04-05T14:02:51.565Z,9.47
2019-04-05T14:05:22.703Z,9.60
2019-04-05T14:07:54.555Z,9.58
2019-04-05T14:10:22.079Z,9.67
2019-04-05T14:12:50.709Z,9.66
2019-04-05T14:15:19.192Z,9.65
2019-04-05T14:17:49.385Z,9.67
2019-04-05T14:20:19.745Z,9.74
2019-04-05T14:22:51.556Z,9.70
2019-04-05T14:25:19.099Z,9.66
2019-04-05T14:27:47.547Z,9.71
2019-04-05T14:30:16.252Z,9.78
2019-04-05T14:32:45.076Z,9.76
2019-04-05T14:35:13.748Z,9.57
2019-04-05T14:37:42.538Z,9.64
2019-04-05T14:40:14.013Z,9.73
2019-04-05T14:42:44.995Z,9.69
2019-04-05T14:45:14.144Z,9.70
2019-04-05T14:47:42.702Z,9.78
2019-04-05T14:50:12.341Z,9.60
2019-04-05T14:52:41.086Z,9.63
2019-04-05T14:55:10.420Z,9.71
2019-04-05T14:57:39.365Z,9.63
2019-04-05T15:00:14.565Z,9.54
2019-04-05T15:02:44.003Z,9.65
2019-04-05T15:05:13.283Z,9.67
2019-04-05T15:07:42.071Z,9.66
2019-04-05T15:10:11.008Z,9.71
2019-04-05T15:12:40.295Z,9.73
2019-04-05T15:15:09.393Z,9.79
2019-04-05T15:17:47.919Z,9.74
2019-04-05T15:20:10.763Z,9.82
2019-04-05T15:22:42.228Z,9.90
2019-04-05T15:25:11.463Z,9.90
2019-04-05T15:27:40.277Z,9.99
2019-04-05T15:30:09.864Z,9.92
2019-04-05T15:32:38.874Z,9.94
2019-04-05T15:35:08.468Z,9.93
2019-04-05T15:37:37.961Z,9.97
2019-04-05T15:40:08.656Z,9.97
2019-04-05T15:42:37.358Z,9.85
2019-04-05T15:45:17.563Z,9.84
2019-04-05T15:47:46.088Z,9.83
2019-04-05T15:50:15.704Z,9.90
2019-04-05T15:52:44.243Z,9.82
2019-04-05T15:55:12.916Z,9.81
2019-04-05T15:57:52.644Z,9.79
2019-04-05T16:00:21.044Z,9.78
2019-04-05T16:02:49.499Z,9.79
2019-04-05T16:05:18.896Z,9.83
2019-04-05T16:07:47.370Z,9.80
2019-04-05T16:10:15.930Z,9.82
2019-04-05T16:12:44.397Z,9.85
2019-04-05T16:15:17.932Z,9.94
2019-04-05T16:17:46.392Z,9.88
2019-04-05T16:20:15.070Z,9.88
2019-04-05T16:22:43.495Z,9.97
2019-04-05T16:25:12.098Z,9.93
2019-04-05T16:27:40.577Z,9.95
2019-04-05T16:30:09.772Z,9.98
2019-04-05T16:32:38.199Z,9.99
2019-04-05T16:35:07.532Z,10.00
2019-04-05T16:37:35.974Z,9.93
2019-04-05T16:40:06.605Z,10.02
2019-04-05T16:42:35.052Z,9.98
2019-04-05T16:45:05.386Z,10.06
2019-04-05T16:47:33.845Z,9.96
2019-04-05T16:50:02.284Z,10.03
2019-04-05T16:52:43.860Z,9.89
2019-04-05T16:55:01.182Z,9.95
2019-04-05T16:57:29.623Z,9.98
2019-04-05T16:59:58.075Z,10.00
2019-04-05T17:02:26.533Z,10.02
2019-04-05T17:04:55.007Z,10.02
2019-04-05T17:07:23.655Z,9.85
2019-04-05T17:09:52.102Z,9.85
2019-04-05T17:12:20.542Z,9.92
2019-04-05T17:14:49.067Z,9.92
2019-04-05T17:17:17.511Z,9.90
2019-04-05T17:19:47.765Z,9.94
2019-04-05T17:22:16.201Z,9.93
2019-04-05T17:24:45.977Z,9.83
2019-04-05T17:27:14.871Z,9.78
2019-04-05T17:29:46.349Z,9.74
2019-04-05T17:32:15.215Z,9.83
2019-04-05T17:34:44.030Z,9.79
2019-04-05T17:37:12.479Z,9.81
2019-04-05T17:39:40.980Z,9.83
2019-04-05T17:42:09.759Z,9.80
2019-04-05T17:44:38.778Z,9.81
2019-04-05T17:47:07.421Z,9.81
2019-04-05T17:49:36.247Z,9.85
2019-04-05T17:52:08.490Z,9.84
2019-04-05T17:54:36.962Z,9.85
2019-04-05T17:57:05.525Z,9.83
2019-04-05T17:59:34.339Z,9.82
2019-04-05T18:02:04.389Z,9.81
2019-04-05T18:04:34.190Z,9.75
2019-04-05T18:07:03.516Z,9.65
2019-04-05T18:09:32.534Z,9.68
2019-04-05T18:12:01.569Z,9.70
2019-04-05T18:14:30.241Z,9.68
2019-04-05T18:16:58.709Z,9.65
2019-04-05T18:19:27.755Z,9.66
2019-04-05T18:21:56.479Z,9.62
2019-04-05T18:24:25.736Z,9.52
2019-04-05T18:26:54.178Z,9.48
2019-04-05T18:29:22.984Z,9.48
2019-04-05T18:31:51.622Z,9.43
2019-04-05T18:34:20.082Z,9.47
2019-04-05T18:36:49.857Z,9.46
2019-04-05T18:39:18.598Z,9.40
2019-04-05T18:41:47.207Z,9.34
2019-04-05T18:44:16.027Z,9.32
2019-04-05T18:46:44.846Z,9.28
2019-04-05T18:49:13.726Z,9.29
2019-04-05T18:51:42.829Z,9.18
2019-04-05T18:54:11.263Z,9.14
2019-04-05T18:56:40.113Z,9.15
2019-04-05T18:59:08.935Z,9.14
2019-04-05T19:01:37.979Z,9.06
2019-04-05T19:04:06.683Z,9.06
2019-04-05T19:06:35.463Z,9.01
2019-04-05T19:09:05.822Z,8.99
2019-04-05T19:11:35.381Z,8.99
2019-04-05T19:14:04.029Z,8.96
2019-04-05T19:16:33.578Z,8.94
2019-04-05T19:19:02.212Z,8.95
2019-04-05T19:21:30.661Z,8.81
2019-04-05T19:23:59.109Z,8.76
2019-04-05T19:26:27.564Z,8.77
2019-04-05T19:28:56.019Z,8.73
2019-04-05T19:48:55.857Z,8.53
2019-04-05T19:51:24.292Z,8.49
2019-04-05T19:54:00.810Z,8.47
2019-04-05T19:56:23.293Z,8.44
2019-04-05T19:58:52.905Z,8.46
2019-04-05T20:01:21.442Z,8.47
2019-04-05T20:03:50.528Z,8.45
2019-04-05T20:06:19.094Z,8.43
2019-04-05T20:08:49.358Z,8.33
2019-04-05T20:11:19.001Z,8.19
2019-04-05T20:13:47.469Z,8.21
2019-04-05T20:16:16.004Z,8.09
2019-04-05T20:18:44.876Z,8.00
2019-04-05T20:21:13.994Z,7.95
2019-04-05T20:23:47.469Z,7.90
2019-04-05T20:26:13.312Z,7.79
2019-04-05T20:28:42.303Z,7.76
2019-04-05T20:31:11.239Z,7.70
2019-04-05T20:33:40.475Z,7.67
2019-04-05T20:36:09.210Z,7.66
2019-04-05T20:38:37.914Z,7.62
2019-04-05T20:41:06.477Z,7.58
2019-04-05T20:43:34.993Z,7.57
2019-04-05T20:46:03.616Z,7.54
2019-04-05T20:48:32.098Z,7.56
2019-04-05T20:51:00.558Z,7.54
2019-04-05T20:53:29.807Z,7.53
2019-04-05T20:55:58.387Z,7.56
2019-04-05T20:58:27.034Z,7.57
2019-04-05T21:00:55.822Z,7.62
2019-04-05T21:03:24.555Z,7.64
2019-04-05T21:05:54.283Z,7.56
2019-04-05T21:08:23.095Z,7.59
2019-04-05T21:10:51.663Z,7.60
2019-04-05T21:13:20.206Z,7.58
2019-04-05T21:15:49.039Z,7.56
2019-04-05T21:18:17.673Z,7.56
2019-04-05T21:20:46.784Z,7.58
2019-04-05T21:23:15.341Z,7.57
2019-04-05T21:25:43.942Z,7.43
2019-04-05T21:28:12.460Z,7.36
2019-04-05T21:30:41.542Z,7.30
2019-04-05T21:33:10.770Z,7.32
2019-04-05T21:35:39.436Z,7.24
2019-04-05T21:38:08.068Z,7.23
2019-04-05T21:40:37.008Z,7.23
2019-04-05T21:43:05.789Z,7.09
2019-04-05T21:45:34.671Z,7.13
2019-04-05T21:48:03.151Z,7.15
2019-04-05T21:50:31.755Z,7.10
2019-04-05T21:53:01.035Z,7.12
2019-04-05T21:55:30.225Z,7.07
2019-04-05T21:57:58.856Z,7.00
2019-04-05T22:00:51.361Z,7.00
2019-04-05T22:03:20.063Z,6.96
2019-04-05T22:05:48.894Z,6.91
2019-04-05T22:08:17.492Z,6.86
2019-04-05T22:10:45.997Z,6.88
2019-04-05T22:13:14.612Z,6.88
2019-04-05T22:15:43.359Z,6.85
2019-04-05T22:18:12.076Z,6.79
2019-04-05T22:20:40.851Z,6.83
2019-04-05T22:23:09.984Z,6.82
2019-04-05T22:25:38.724Z,6.82
2019-04-05T22:28:07.229Z,6.76
2019-04-05T22:30:37.093Z,6.71
2019-04-05T22:33:05.897Z,6.73
2019-04-05T22:35:34.512Z,6.70
2019-04-05T22:38:03.055Z,6.67
2019-04-05T22:40:31.529Z,6.62
2019-04-05T22:43:00.354Z,6.61
2019-04-05T22:45:29.667Z,6.41
2019-04-05T22:47:59.721Z,6.39
2019-04-05T22:50:28.527Z,6.45
2019-04-05T22:52:57.020Z,6.40
2019-04-05T22:55:26.046Z,6.34
2019-04-05T22:57:55.174Z,6.29
2019-04-05T23:00:24.140Z,6.32
2019-04-05T23:02:52.612Z,6.33
2019-04-05T23:05:21.099Z,6.32
2019-04-05T23:07:49.574Z,6.23
2019-04-05T23:10:18.239Z,6.21
2019-04-05T23:12:46.696Z,6.24
2019-04-05T23:15:15.300Z,6.10
2019-04-05T23:17:43.810Z,6.11
2019-04-05T23:20:12.825Z,6.05
2019-04-05T23:22:41.299Z,6.10
2019-04-05T23:25:09.862Z,6.17
2019-04-05T23:27:38.382Z,6.03
2019-04-05T23:30:08.949Z,6.05
2019-04-05T23:32:37.484Z,6.08
2019-04-05T23:35:08.765Z,6.08
2019-04-05T23:37:37.244Z,6.08
2019-04-05T23:40:07.154Z,6.07
2019-04-05T23:42:35.641Z,6.08
2019-04-05T23:45:07.705Z,6.05
2019-04-05T23:47:36.185Z,5.84
2019-04-05T23:50:05.900Z,5.86
2019-04-05T23:52:34.380Z,5.96
2019-04-05T23:55:02.863Z,5.94
2019-04-05T23:57:31.352Z,6.02
2019-04-05T23:59:59.820Z,6.00
